Terminal Aerodrome Forecast
Issued by NWS

Home | Current Version | Previous Version | Text Only | Print | Product List | Glossary On
Versions: 1 2 3 4 5 6 7 8 9 10 11 12 13 14 15 16 17 18 19 20 21 22 23 24 25 26 27 28 29 30 31 32 33 34 35
000
FTUS41 KOKX 052000 AAC
TAFTEB
TAF AMD
KTEB 052035Z 0521/0618 30012G16KT 5SM -SN BKN025 OVC060
      TEMPO 0521/0523 2SM -SN BKN015
     FM052300 33012KT P6SM BKN020 OVC050
     FM060200 32010KT P6SM SCT020 BKN050
     FM060700 35009KT P6SM FEW050=

USA.gov is the U.S. government's official web portal to all federal, state and local government web resources and services.